logo
Search for airport 
image banner adimage banner adimage banner ad
image banner ad

SCCF - El Loa

Located in Calama, Chile

ICAO - SCCF, IATA - CJC

Data provided by Airmate  

General information

Coordinates: S22°30'0" W68°54'11"
Elevation is 7631 feet MSL.
Magnetic variation is -6° East
View others Airports in Antofagasta

Operational data

Special qualification required
Current time UTC:
Current local time:
Weather
METAR: SCCF 231700Z 27018KT CAVOK 23/05 Q1027
View NOTAMs / SUP AIP / TFR affecting this airport [VIEW]
Communications frequencies: [VIEW]

Runways:

RWY identifierQFULength (ft)Width (ft)SurfaceLDA (ft)
1094°9974148ASP
28274°9974148ASP

Airport contact information

Address: Calama Chile

Other aviation service providers

Aviation club (not for profit)

Club Aéreo Calama

Club Aéreo Calama
clubaereodecalama@gmail.com+56985888099
+56985888099

Club Aéreo San Pedro De Atacama

Club Aéreo San Pedro De Atacama

Satellite view of SCCF